createdAt,value
2019-03-15T00:00:43.478Z,5.5
2019-03-15T00:01:45.601Z,5.4
2019-03-15T00:02:47.714Z,5.5
2019-03-15T00:03:49.770Z,5.5
2019-03-15T00:04:51.782Z,5.5
2019-03-15T00:05:53.794Z,5.5
2019-03-15T00:06:56.088Z,5.4
2019-03-15T00:07:58.101Z,5.4
2019-03-15T00:09:00.115Z,5.5
2019-03-15T00:10:02.150Z,5.4
2019-03-15T00:11:05.195Z,5.4
2019-03-15T00:12:07.207Z,5.4
2019-03-15T00:13:09.546Z,5.4
2019-03-15T00:14:11.608Z,5.5
2019-03-15T00:15:13.627Z,5.5
2019-03-15T00:16:15.621Z,5.5
2019-03-15T00:17:17.624Z,5.5
2019-03-15T00:18:20.017Z,5.5
2019-03-15T00:19:22.025Z,5.5
2019-03-15T00:20:24.029Z,5.5
2019-03-15T00:21:26.036Z,5.6
2019-03-15T00:22:28.034Z,5.6
2019-03-15T00:23:30.142Z,5.6
2019-03-15T00:24:32.150Z,5.5
2019-03-15T00:25:34.161Z,5.5
2019-03-15T00:26:36.187Z,5.5
2019-03-15T00:27:38.486Z,5.5
2019-03-15T00:28:40.498Z,5.5
2019-03-15T00:29:42.510Z,5.5
2019-03-15T00:30:44.517Z,5.5
2019-03-15T00:31:46.686Z,5.5
2019-03-15T00:32:48.693Z,5.5
2019-03-15T00:33:51.839Z,5.5
2019-03-15T00:34:54.129Z,5.5
2019-03-15T00:35:56.240Z,5.5
2019-03-15T00:36:58.537Z,5.4
2019-03-15T00:38:00.600Z,5.4
2019-03-15T00:39:02.802Z,5.4
2019-03-15T00:40:05.194Z,5.4
2019-03-15T00:41:07.202Z,5.4
2019-03-15T00:42:09.473Z,5.4
2019-03-15T00:43:11.472Z,5.5
2019-03-15T00:44:13.482Z,5.5
2019-03-15T00:45:15.488Z,5.5
2019-03-15T00:46:17.876Z,5.5
2019-03-15T00:47:19.883Z,5.5
2019-03-15T00:48:21.906Z,5.5
2019-03-15T00:49:23.915Z,5.5
2019-03-15T00:50:25.923Z,5.5
2019-03-15T00:51:27.921Z,5.5
2019-03-15T00:52:29.922Z,5.5
2019-03-15T00:53:31.923Z,5.5
2019-03-15T00:54:33.948Z,5.4
2019-03-15T00:55:36.069Z,5.4
2019-03-15T00:56:38.417Z,5.5
2019-03-15T00:57:40.425Z,5.4
2019-03-15T00:58:42.707Z,5.4
2019-03-15T00:59:44.712Z,5.4
2019-03-15T01:00:46.717Z,5.5
2019-03-15T01:01:48.717Z,5.4
2019-03-15T01:02:50.915Z,5.4
2019-03-15T01:03:52.917Z,5.4
2019-03-15T01:04:55.065Z,5.5
2019-03-15T01:05:57.165Z,5.4
2019-03-15T01:06:59.449Z,5.4
2019-03-15T01:08:02.391Z,5.4
2019-03-15T01:09:04.595Z,5.4
2019-03-15T01:10:06.604Z,5.3
2019-03-15T01:11:08.635Z,5.4
2019-03-15T01:12:10.876Z,5.4
2019-03-15T01:13:12.874Z,5.4
2019-03-15T01:14:14.878Z,5.4
2019-03-15T01:15:16.878Z,5.4
2019-03-15T01:16:18.883Z,5.3
2019-03-15T01:17:20.893Z,5.3
2019-03-15T01:18:22.893Z,5.3
2019-03-15T01:19:24.911Z,5.3
2019-03-15T01:20:26.903Z,5.3
2019-03-15T01:21:29.676Z,5.3
2019-03-15T01:22:31.683Z,5.3
2019-03-15T01:23:34.367Z,5.3
2019-03-15T01:24:36.369Z,5.3
2019-03-15T01:25:38.368Z,5.3
2019-03-15T01:26:40.670Z,5.4
2019-03-15T01:27:42.692Z,5.4
2019-03-15T01:28:44.970Z,5.4
2019-03-15T01:29:47.065Z,5.4
2019-03-15T01:30:49.066Z,5.4
2019-03-15T01:31:51.079Z,5.4
2019-03-15T01:32:53.079Z,5.4
2019-03-15T01:33:55.086Z,5.4
2019-03-15T01:34:57.370Z,5.4
2019-03-15T01:35:59.380Z,5.4
2019-03-15T01:37:01.499Z,5.5
2019-03-15T01:38:03.507Z,5.4
2019-03-15T01:39:05.922Z,5.5
2019-03-15T01:40:07.925Z,5.5
2019-03-15T01:41:10.201Z,5.4
2019-03-15T01:42:12.200Z,5.5
2019-03-15T01:43:14.440Z,5.5
2019-03-15T01:44:16.444Z,5.5
2019-03-15T01:45:19.426Z,5.4
2019-03-15T01:46:21.431Z,5.4
2019-03-15T01:47:25.186Z,5.4
2019-03-15T01:48:27.192Z,5.4
2019-03-15T01:49:29.200Z,5.4
2019-03-15T01:50:31.207Z,5.4
2019-03-15T01:51:33.618Z,5.4
2019-03-15T01:52:35.622Z,5.4
2019-03-15T01:53:37.627Z,5.4
2019-03-15T01:54:39.633Z,5.4
2019-03-15T01:55:41.642Z,5.4
2019-03-15T01:56:43.652Z,5.4
2019-03-15T01:57:45.653Z,5.4
2019-03-15T01:58:47.667Z,5.4
2019-03-15T01:59:49.776Z,5.4
2019-03-15T02:00:52.264Z,5.4
2019-03-15T02:01:54.269Z,5.4
2019-03-15T02:02:56.271Z,5.4
2019-03-15T02:03:58.280Z,5.4
2019-03-15T02:05:00.490Z,5.4
2019-03-15T02:06:02.790Z,5.5
2019-03-15T02:07:04.795Z,5.4
2019-03-15T02:08:06.800Z,5.4
2019-03-15T02:09:10.455Z,5.4
2019-03-15T02:10:12.461Z,5.5
2019-03-15T02:11:14.464Z,5.4
2019-03-15T02:12:16.471Z,5.4
2019-03-15T02:13:18.763Z,5.4
2019-03-15T02:14:20.776Z,5.4
2019-03-15T02:15:22.776Z,5.4
2019-03-15T02:16:25.256Z,5.4
2019-03-15T02:17:27.806Z,5.5
2019-03-15T02:18:30.156Z,5.4
2019-03-15T02:19:32.548Z,5.5
2019-03-15T02:20:34.727Z,5.4
2019-03-15T02:21:37.016Z,5.4
2019-03-15T02:22:39.076Z,5.4
2019-03-15T02:23:41.081Z,5.4
2019-03-15T02:24:43.372Z,5.4
2019-03-15T02:25:45.374Z,5.4
2019-03-15T02:26:48.459Z,5.4
2019-03-15T02:27:50.696Z,5.4
2019-03-15T02:28:52.780Z,5.4
2019-03-15T02:29:55.173Z,5.4
2019-03-15T02:30:57.217Z,5.4
2019-03-15T02:31:59.221Z,5.5
2019-03-15T02:33:01.532Z,5.4
2019-03-15T02:34:04.206Z,5.4
2019-03-15T02:35:06.950Z,5.4
2019-03-15T02:36:09.268Z,5.4
2019-03-15T02:37:11.564Z,5.4
2019-03-15T02:38:13.871Z,5.4
2019-03-15T02:39:15.888Z,5.4
2019-03-15T02:40:18.183Z,5.4
2019-03-15T02:41:20.486Z,5.4
2019-03-15T02:42:22.486Z,5.3
2019-03-15T02:43:24.491Z,5.4
2019-03-15T02:44:26.591Z,5.4
2019-03-15T02:45:29.298Z,5.4
2019-03-15T02:46:31.879Z,5.3
2019-03-15T02:47:33.914Z,5.3
2019-03-15T02:48:36.540Z,5.3
2019-03-15T02:49:38.538Z,5.3
2019-03-15T02:50:40.946Z,5.3
2019-03-15T02:51:42.960Z,5.3
2019-03-15T02:52:44.979Z,5.3
2019-03-15T02:53:47.023Z,5.3
2019-03-15T02:54:49.717Z,5.3
2019-03-15T02:55:52.000Z,5.3
2019-03-15T02:56:54.002Z,5.3
2019-03-15T02:57:56.599Z,5.3
2019-03-15T02:58:59.027Z,5.3
2019-03-15T03:00:01.447Z,5.3
2019-03-15T03:01:04.397Z,5.3
2019-03-15T03:02:06.627Z,5.3
2019-03-15T03:03:09.380Z,5.4
2019-03-15T03:04:11.550Z,5.3
2019-03-15T03:05:13.999Z,5.3
2019-03-15T03:06:16.036Z,5.3
2019-03-15T03:07:18.480Z,5.3
2019-03-15T03:08:20.861Z,5.3
2019-03-15T03:09:23.168Z,5.3
2019-03-15T03:10:25.401Z,5.4
2019-03-15T03:11:27.474Z,5.4
2019-03-15T03:12:30.004Z,5.4
2019-03-15T03:13:32.740Z,5.4
2019-03-15T03:14:34.999Z,5.4
2019-03-15T03:15:37.035Z,5.3
2019-03-15T03:16:39.067Z,5.4
2019-03-15T03:17:41.671Z,5.4
2019-03-15T03:18:44.260Z,5.3
2019-03-15T03:19:46.679Z,5.3
2019-03-15T03:20:49.849Z,5.3
2019-03-15T03:21:52.529Z,5.4
2019-03-15T03:22:54.888Z,5.4
2019-03-15T03:23:58.818Z,5.3
2019-03-15T03:25:01.482Z,5.4
2019-03-15T03:26:04.118Z,5.4
2019-03-15T03:27:07.861Z,5.4
2019-03-15T03:28:10.218Z,5.4
2019-03-15T03:29:12.251Z,5.4
2019-03-15T03:30:18.618Z,5.4
2019-03-15T03:31:21.409Z,5.4
2019-03-15T03:32:23.931Z,5.4
2019-03-15T03:33:26.607Z,5.4
2019-03-15T03:34:29.020Z,5.4
2019-03-15T03:35:32.015Z,5.3
2019-03-15T03:36:34.088Z,5.4
2019-03-15T03:37:36.145Z,5.4
2019-03-15T03:38:40.468Z,5.4
2019-03-15T03:39:42.533Z,5.4
2019-03-15T03:40:45.143Z,5.4
2019-03-15T03:41:47.771Z,5.4
2019-03-15T03:42:50.094Z,5.3
2019-03-15T03:43:52.431Z,5.3
2019-03-15T03:44:54.742Z,5.4
2019-03-15T03:45:56.826Z,5.4
2019-03-15T03:46:58.876Z,5.3
2019-03-15T03:48:00.906Z,5.4
2019-03-15T03:49:03.101Z,5.4
2019-03-15T03:50:05.414Z,5.4
2019-03-15T03:51:08.724Z,5.4
2019-03-15T03:52:10.889Z,5.4
2019-03-15T03:53:12.906Z,5.4
2019-03-15T03:54:15.069Z,5.5
2019-03-15T03:55:17.093Z,5.5
2019-03-15T03:56:19.339Z,5.4
2019-03-15T03:57:21.396Z,5.5
2019-03-15T03:58:23.583Z,5.4
2019-03-15T03:59:25.595Z,5.5
2019-03-15T04:00:27.626Z,5.5
2019-03-15T04:01:29.971Z,5.5
2019-03-15T04:02:34.837Z,5.4
2019-03-15T04:03:37.261Z,5.4
2019-03-15T04:04:39.930Z,5.4
2019-03-15T04:05:41.947Z,5.5
2019-03-15T04:06:44.185Z,5.4
2019-03-15T04:07:46.621Z,5.4
2019-03-15T04:08:48.647Z,5.4
2019-03-15T04:09:50.696Z,5.5
2019-03-15T04:10:52.781Z,5.4
2019-03-15T04:11:57.282Z,5.5
2019-03-15T04:12:59.322Z,5.4
2019-03-15T04:14:01.358Z,5.4
2019-03-15T04:15:03.421Z,5.5
2019-03-15T04:16:05.744Z,5.5
2019-03-15T04:17:07.790Z,5.4
2019-03-15T04:18:09.816Z,5.4
2019-03-15T04:19:11.858Z,5.4
2019-03-15T04:20:13.890Z,5.4
2019-03-15T04:21:15.917Z,5.4
2019-03-15T04:22:17.947Z,5.4
2019-03-15T04:23:20.007Z,5.4
2019-03-15T04:24:22.046Z,5.4
2019-03-15T04:25:24.378Z,5.4
2019-03-15T04:26:26.700Z,5.4
2019-03-15T04:27:28.735Z,5.4
2019-03-15T04:28:30.782Z,5.4
2019-03-15T04:29:32.806Z,5.4
2019-03-15T04:30:34.840Z,5.4
2019-03-15T04:31:36.876Z,5.4
2019-03-15T04:32:38.929Z,5.5
2019-03-15T04:33:40.960Z,5.4
2019-03-15T04:34:42.989Z,5.4
2019-03-15T04:35:45.024Z,5.5
2019-03-15T04:36:47.046Z,5.5
2019-03-15T04:37:49.093Z,5.4
2019-03-15T04:38:51.666Z,5.4
2019-03-15T04:39:53.685Z,5.4
2019-03-15T04:40:56.368Z,5.5
2019-03-15T04:41:58.397Z,5.5
2019-03-15T04:43:01.105Z,5.5
2019-03-15T04:44:03.729Z,5.5
2019-03-15T04:45:05.774Z,5.6
2019-03-15T04:46:07.825Z,5.6
2019-03-15T04:47:09.867Z,5.5
2019-03-15T04:48:12.071Z,5.6
2019-03-15T04:49:14.111Z,5.5
2019-03-15T04:50:16.137Z,5.5
2019-03-15T04:51:18.170Z,5.6
2019-03-15T04:52:20.214Z,5.6
2019-03-15T04:53:22.514Z,5.6
2019-03-15T04:54:24.554Z,5.5
2019-03-15T04:55:26.584Z,5.5
2019-03-15T04:56:28.634Z,5.5
2019-03-15T04:57:30.654Z,5.5
2019-03-15T04:58:32.693Z,5.5
2019-03-15T04:59:34.739Z,5.5
2019-03-15T05:00:36.771Z,5.4
2019-03-15T05:01:38.912Z,5.5
2019-03-15T05:02:40.943Z,5.4
2019-03-15T05:03:43.114Z,5.4
2019-03-15T05:04:45.153Z,5.4
2019-03-15T05:05:47.754Z,5.4
2019-03-15T05:07:04.605Z,5.4
2019-03-15T05:08:06.645Z,5.4
2019-03-15T05:09:08.726Z,5.4
2019-03-15T05:10:10.746Z,5.4
2019-03-15T05:11:13.444Z,5.4
2019-03-15T05:12:15.489Z,5.3
2019-03-15T05:13:17.587Z,5.3
2019-03-15T05:14:19.627Z,5.3
2019-03-15T05:15:21.984Z,5.3
2019-03-15T05:16:24.110Z,5.3
2019-03-15T05:17:26.545Z,5.2
2019-03-15T05:18:28.842Z,5.3
2019-03-15T05:19:31.451Z,5.3
2019-03-15T05:20:33.468Z,5.2
2019-03-15T05:21:35.957Z,5.2
2019-03-15T05:22:38.099Z,5.3
2019-03-15T05:23:40.133Z,5.2
2019-03-15T05:24:42.435Z,5.2
2019-03-15T05:25:44.631Z,5.3
2019-03-15T05:26:46.659Z,5.3
2019-03-15T05:27:48.688Z,5.3
2019-03-15T05:28:51.004Z,5.3
2019-03-15T05:29:53.053Z,5.3
2019-03-15T05:30:55.094Z,5.2
2019-03-15T05:31:57.122Z,5.2
2019-03-15T05:32:59.160Z,5.2
2019-03-15T05:34:01.206Z,5.2
2019-03-15T05:35:03.531Z,5.3
2019-03-15T05:36:05.557Z,5.2
2019-03-15T05:37:07.582Z,5.3
2019-03-15T05:38:09.604Z,5.2
2019-03-15T05:39:11.646Z,5.2
2019-03-15T05:40:13.678Z,5.3
2019-03-15T05:41:15.996Z,5.2
2019-03-15T05:42:18.023Z,5.2
2019-03-15T05:43:20.123Z,5.3
2019-03-15T05:44:22.153Z,5.2
2019-03-15T05:45:24.198Z,5.3
2019-03-15T05:46:26.208Z,5.2
2019-03-15T05:47:28.238Z,5.3
2019-03-15T05:48:30.320Z,5.3
2019-03-15T05:49:32.347Z,5.3
2019-03-15T05:50:34.388Z,5.3
2019-03-15T05:51:36.415Z,5.3
2019-03-15T05:52:38.474Z,5.3
2019-03-15T05:53:40.497Z,5.3
2019-03-15T05:54:42.546Z,5.3
2019-03-15T05:55:44.769Z,5.3
2019-03-15T05:56:46.797Z,5.2
2019-03-15T05:57:48.830Z,5.3
2019-03-15T05:58:50.865Z,5.2
2019-03-15T05:59:53.277Z,5.3
2019-03-15T06:00:55.616Z,5.3
2019-03-15T06:01:57.652Z,5.3
2019-03-15T06:02:59.743Z,5.3
2019-03-15T06:04:02.145Z,5.3
2019-03-15T06:05:04.203Z,5.3
2019-03-15T06:06:06.562Z,5.3
2019-03-15T06:07:08.579Z,5.3
2019-03-15T06:08:11.311Z,5.3
2019-03-15T06:09:13.630Z,5.3
2019-03-15T06:10:15.932Z,5.2
2019-03-15T06:11:17.968Z,5.3
2019-03-15T06:12:20.097Z,5.3
2019-03-15T06:13:22.132Z,5.3
2019-03-15T06:14:24.166Z,5.4
2019-03-15T06:15:26.206Z,5.4
2019-03-15T06:16:28.507Z,5.4
2019-03-15T06:17:30.535Z,5.4
2019-03-15T06:18:33.347Z,5.4
2019-03-15T06:19:35.371Z,5.4
2019-03-15T06:20:37.793Z,5.4
2019-03-15T06:21:39.870Z,5.4
2019-03-15T06:22:41.903Z,5.4
2019-03-15T06:23:43.951Z,5.4
2019-03-15T06:24:45.975Z,5.4
2019-03-15T06:25:48.291Z,5.5
2019-03-15T06:26:50.599Z,5.5
2019-03-15T06:27:52.927Z,5.5
2019-03-15T06:28:54.953Z,5.5
2019-03-15T06:29:56.992Z,5.5
2019-03-15T06:30:59.025Z,5.5
2019-03-15T06:32:01.628Z,5.4
2019-03-15T06:33:03.999Z,5.5
2019-03-15T06:34:06.033Z,5.5
2019-03-15T06:35:08.073Z,5.5
2019-03-15T06:36:10.083Z,5.5
2019-03-15T06:37:12.135Z,5.5
2019-03-15T06:38:14.163Z,5.6
2019-03-15T06:39:16.188Z,5.6
2019-03-15T06:40:18.799Z,5.6
2019-03-15T06:41:20.819Z,5.6
2019-03-15T06:42:22.872Z,5.6
2019-03-15T06:43:24.909Z,5.6
2019-03-15T06:44:28.548Z,5.6
2019-03-15T06:45:33.187Z,5.7
2019-03-15T06:46:35.327Z,5.7
2019-03-15T06:47:37.356Z,5.8
2019-03-15T06:48:39.389Z,5.8
2019-03-15T06:49:41.719Z,5.8
2019-03-15T06:50:43.749Z,5.8
2019-03-15T06:51:45.773Z,5.9
2019-03-15T06:52:47.817Z,5.9
2019-03-15T06:53:50.138Z,6
2019-03-15T06:54:52.221Z,6.1
2019-03-15T06:55:54.258Z,6
2019-03-15T06:56:56.292Z,6
2019-03-15T06:57:58.333Z,6
2019-03-15T06:59:00.701Z,6
2019-03-15T07:00:04.421Z,6.1
2019-03-15T07:01:06.483Z,6.1
2019-03-15T07:02:08.523Z,6
2019-03-15T07:03:10.626Z,6.1
2019-03-15T07:04:12.671Z,6
2019-03-15T07:05:14.709Z,6.1
2019-03-15T07:06:16.734Z,6.1
2019-03-15T07:07:18.769Z,6.1
2019-03-15T07:08:21.078Z,6.1
2019-03-15T07:09:23.701Z,6.2
2019-03-15T07:10:25.733Z,6.1
2019-03-15T07:11:27.764Z,6.1
2019-03-15T07:12:29.814Z,6.1
2019-03-15T07:13:31.831Z,6.1
2019-03-15T07:14:33.873Z,6.2
2019-03-15T07:15:37.219Z,6.2
2019-03-15T07:16:39.711Z,6.2
2019-03-15T07:17:42.858Z,6.2
2019-03-15T07:18:44.895Z,6.2
2019-03-15T07:19:46.928Z,6.3
2019-03-15T07:20:49.251Z,6.2
2019-03-15T07:21:51.294Z,6.3
2019-03-15T07:22:53.349Z,6.2
2019-03-15T07:23:58.965Z,6.2
2019-03-15T07:25:00.990Z,6.2
2019-03-15T07:26:03.048Z,6.3
2019-03-15T07:27:14.899Z,6.3
2019-03-15T07:28:17.224Z,6.3
2019-03-15T07:29:20.189Z,6.3
2019-03-15T07:30:22.781Z,6.3
2019-03-15T07:31:24.821Z,6.3
2019-03-15T07:32:26.871Z,6.3
2019-03-15T07:33:29.297Z,6.3
2019-03-15T07:34:31.312Z,6.3
2019-03-15T07:35:34.583Z,6.3
2019-03-15T07:36:38.493Z,6.3
2019-03-15T07:37:40.918Z,6.3
2019-03-15T07:38:43.576Z,6.4
2019-03-15T07:39:45.604Z,6.4
2019-03-15T07:40:47.639Z,6.4
2019-03-15T07:41:50.339Z,6.3
2019-03-15T07:42:52.480Z,6.3
2019-03-15T07:43:54.622Z,6.3
2019-03-15T07:44:56.663Z,6.4
2019-03-15T07:45:59.088Z,6.4
2019-03-15T07:47:01.190Z,6.4
2019-03-15T07:48:03.247Z,6.4
2019-03-15T07:49:05.285Z,6.4
2019-03-15T07:50:07.314Z,6.4
2019-03-15T07:51:09.431Z,6.4
2019-03-15T07:52:11.489Z,6.4
2019-03-15T07:53:13.522Z,6.4
2019-03-15T07:54:15.553Z,6.4
2019-03-15T07:55:17.582Z,6.4
2019-03-15T07:56:19.934Z,6.4
2019-03-15T07:57:21.972Z,6.4
2019-03-15T07:58:24.008Z,6.4
2019-03-15T07:59:29.044Z,6.4
2019-03-15T08:00:31.082Z,6.4
2019-03-15T08:01:33.188Z,6.4
2019-03-15T08:02:35.236Z,6.4
2019-03-15T08:03:37.253Z,6.4
2019-03-15T08:04:39.306Z,6.4
2019-03-15T08:05:41.351Z,6.4
2019-03-15T08:06:43.390Z,6.4
2019-03-15T08:07:47.266Z,6.3
2019-03-15T08:08:49.335Z,6.4
2019-03-15T08:09:52.100Z,6.5
2019-03-15T08:10:56.098Z,6.6
2019-03-15T08:11:58.248Z,6.5
2019-03-15T08:13:00.273Z,6.6
2019-03-15T08:14:02.313Z,6.6
2019-03-15T08:15:04.641Z,6.6
2019-03-15T08:16:06.690Z,6.6
2019-03-15T08:17:09.016Z,6.5
2019-03-15T08:18:11.142Z,6.5
2019-03-15T08:19:13.190Z,6.6
2019-03-15T08:20:15.544Z,6.5
2019-03-15T08:21:17.892Z,6.5
2019-03-15T08:22:19.928Z,6.6
2019-03-15T08:23:21.966Z,6.6
2019-03-15T08:24:24.002Z,6.7
2019-03-15T08:25:26.049Z,6.7
2019-03-15T08:26:31.339Z,6.7
2019-03-15T08:27:33.371Z,6.7
2019-03-15T08:28:35.430Z,6.7
2019-03-15T08:29:37.468Z,6.6
2019-03-15T08:30:39.516Z,6.6
2019-03-15T08:31:41.561Z,6.7
2019-03-15T08:32:45.490Z,6.6
2019-03-15T08:33:47.802Z,6.6
2019-03-15T08:34:50.115Z,6.5
2019-03-15T08:35:52.169Z,6.6
2019-03-15T08:36:54.194Z,6.6
2019-03-15T08:37:56.233Z,6.6
2019-03-15T08:38:58.272Z,6.5
2019-03-15T08:40:00.595Z,6.6
2019-03-15T08:41:02.609Z,6.6
2019-03-15T08:42:04.663Z,6.6
2019-03-15T08:43:06.696Z,6.6
2019-03-15T08:44:08.723Z,6.6
2019-03-15T08:45:10.759Z,6.6
2019-03-15T08:46:13.089Z,6.6
2019-03-15T08:47:15.129Z,6.6
2019-03-15T08:48:17.242Z,6.6
2019-03-15T08:49:19.361Z,6.7
2019-03-15T08:50:25.782Z,6.7
2019-03-15T08:51:27.811Z,6.7
2019-03-15T08:52:29.874Z,6.7
2019-03-15T08:53:31.898Z,6.7
2019-03-15T08:54:34.038Z,6.7
2019-03-15T08:55:36.073Z,6.7
2019-03-15T08:56:41.650Z,6.7
2019-03-15T08:57:43.827Z,6.8
2019-03-15T08:58:45.883Z,6.7
2019-03-15T08:59:59.141Z,6.7
2019-03-15T09:01:01.578Z,6.7
2019-03-15T09:02:03.619Z,6.8
2019-03-15T09:03:05.645Z,6.8
2019-03-15T09:04:07.680Z,6.8
2019-03-15T09:05:09.724Z,6.7
2019-03-15T09:06:11.749Z,6.8
2019-03-15T09:07:13.790Z,6.7
2019-03-15T09:08:15.817Z,6.7
2019-03-15T09:09:18.144Z,6.8
2019-03-15T09:10:25.356Z,6.8
2019-03-15T09:11:27.438Z,6.8
2019-03-15T09:12:29.753Z,6.9
2019-03-15T09:13:32.062Z,6.9
2019-03-15T09:14:34.104Z,6.9
2019-03-15T09:15:36.242Z,7
2019-03-15T09:16:38.580Z,7.1
2019-03-15T09:17:40.621Z,7.1
2019-03-15T09:18:42.644Z,7
2019-03-15T09:19:44.696Z,7
2019-03-15T09:20:47.008Z,7
2019-03-15T09:21:49.055Z,7
2019-03-15T09:22:51.071Z,7.1
2019-03-15T09:23:53.116Z,7.1
2019-03-15T09:24:55.432Z,7.3
2019-03-15T09:25:57.465Z,7.3
2019-03-15T09:27:00.075Z,7.3
2019-03-15T09:28:02.101Z,7.3
2019-03-15T09:29:04.428Z,7.3
2019-03-15T09:30:06.467Z,7.3
2019-03-15T09:31:08.934Z,7.3
2019-03-15T09:32:10.974Z,7.3
2019-03-15T09:33:13.301Z,7.3
2019-03-15T09:34:15.608Z,7.3
2019-03-15T09:35:17.924Z,7.4
2019-03-15T09:36:19.979Z,7.5
2019-03-15T09:37:22.016Z,7.5
2019-03-15T09:38:24.103Z,7.5
2019-03-15T09:39:26.194Z,7.5
2019-03-15T09:40:28.227Z,7.5
2019-03-15T09:41:41.434Z,7.4
2019-03-15T09:42:43.478Z,7.4
2019-03-15T09:43:47.027Z,7.4
2019-03-15T09:44:49.077Z,7.4
2019-03-15T09:45:51.118Z,7.5
2019-03-15T09:46:53.448Z,7.5
2019-03-15T09:47:55.490Z,7.5
2019-03-15T09:49:00.860Z,7.5
2019-03-15T09:50:02.897Z,7.5
2019-03-15T09:51:04.939Z,7.6
2019-03-15T09:52:06.965Z,7.5
2019-03-15T09:53:09.016Z,7.7
2019-03-15T09:54:11.051Z,7.6
2019-03-15T09:55:13.104Z,7.6
2019-03-15T09:56:15.140Z,7.6
2019-03-15T09:57:17.211Z,7.6
2019-03-15T09:58:19.270Z,7.5
2019-03-15T09:59:21.578Z,7.6
2019-03-15T10:00:23.629Z,7.7
2019-03-15T10:01:36.532Z,7.7
2019-03-15T10:02:38.572Z,7.7
2019-03-15T10:03:40.614Z,7.7
2019-03-15T10:04:42.957Z,7.6
2019-03-15T10:05:44.985Z,7.6
2019-03-15T10:06:47.026Z,7.6
2019-03-15T10:07:49.477Z,7.6
2019-03-15T10:08:51.608Z,7.7
2019-03-15T10:09:53.658Z,7.7
2019-03-15T10:10:55.695Z,7.8
2019-03-15T10:11:57.771Z,7.9
2019-03-15T10:13:07.409Z,8
2019-03-15T10:14:09.436Z,8
2019-03-15T10:15:11.761Z,8
2019-03-15T10:16:13.798Z,8.1
2019-03-15T10:17:15.833Z,8.1
2019-03-15T10:18:17.876Z,8.1
2019-03-15T10:19:20.187Z,8
2019-03-15T10:20:22.626Z,8
2019-03-15T10:21:24.642Z,8
2019-03-15T10:22:26.688Z,8.1
2019-03-15T10:23:28.719Z,8.2
2019-03-15T10:24:30.748Z,8.1
2019-03-15T10:25:52.235Z,8.1
2019-03-15T10:26:54.538Z,8.1
2019-03-15T10:27:56.572Z,8.3
2019-03-15T10:28:58.664Z,8.4
2019-03-15T10:30:00.997Z,8.4
2019-03-15T10:31:03.020Z,8.5
2019-03-15T10:32:05.636Z,8.6
2019-03-15T10:33:07.692Z,8.6
2019-03-15T10:34:09.716Z,8.5
2019-03-15T10:35:12.050Z,8.4
2019-03-15T10:36:14.081Z,8.4
2019-03-15T10:37:16.110Z,8.4
2019-03-15T10:38:18.146Z,8.4
2019-03-15T10:39:20.185Z,8.5
2019-03-15T10:40:22.908Z,8.6
2019-03-15T10:41:24.939Z,8.4
2019-03-15T10:42:26.978Z,8.4
2019-03-15T10:43:29.331Z,8.4
2019-03-15T10:44:31.754Z,8.4
2019-03-15T10:45:34.184Z,8.5
2019-03-15T10:46:36.203Z,8.5
2019-03-15T10:47:38.527Z,8.4
2019-03-15T10:48:44.208Z,8.4
2019-03-15T10:49:46.257Z,8.4
2019-03-15T10:50:48.310Z,8.6
2019-03-15T10:51:50.336Z,8.5
2019-03-15T10:52:55.422Z,8.6
2019-03-15T10:53:57.456Z,8.6
2019-03-15T10:54:59.520Z,8.7
2019-03-15T10:56:01.832Z,8.9
2019-03-15T10:57:03.887Z,8.8
2019-03-15T10:58:05.948Z,8.9
2019-03-15T10:59:07.975Z,8.9
2019-03-15T11:00:10.021Z,9
2019-03-15T11:01:12.087Z,9
2019-03-15T11:02:14.126Z,9.1
2019-03-15T11:03:16.165Z,9.3
2019-03-15T11:04:18.215Z,9.2
2019-03-15T11:05:20.277Z,9.3
2019-03-15T11:06:22.321Z,9.4
2019-03-15T11:07:24.343Z,9.3
2019-03-15T11:08:26.871Z,9.2
2019-03-15T11:09:28.911Z,9.4
2019-03-15T11:10:30.949Z,9.5
2019-03-15T11:11:32.988Z,9.3
2019-03-15T11:12:35.036Z,9.3
2019-03-15T11:13:37.075Z,9.2
2019-03-15T11:14:39.116Z,9
2019-03-15T11:15:41.233Z,9
2019-03-15T11:16:43.268Z,9.1
2019-03-15T11:17:45.326Z,9.1
2019-03-15T11:18:47.407Z,9.2
2019-03-15T11:19:49.475Z,9.1
2019-03-15T11:20:52.639Z,9.1
2019-03-15T11:21:54.696Z,9
2019-03-15T11:22:57.036Z,9
2019-03-15T11:23:59.187Z,9
2019-03-15T11:25:01.633Z,8.9
2019-03-15T11:26:15.508Z,8.9
2019-03-15T11:27:17.836Z,8.8
2019-03-15T11:28:19.891Z,8.8
2019-03-15T11:29:22.622Z,8.8
2019-03-15T11:30:24.670Z,8.8
2019-03-15T11:31:26.712Z,8.8
2019-03-15T11:32:28.740Z,8.8
2019-03-15T11:33:30.864Z,8.8
2019-03-15T11:34:32.905Z,8.8
2019-03-15T11:35:34.948Z,8.8
2019-03-15T11:36:36.997Z,8.7
2019-03-15T11:37:39.713Z,8.7
2019-03-15T11:38:41.748Z,8.7
2019-03-15T11:39:44.166Z,8.6
2019-03-15T11:40:46.209Z,8.6
2019-03-15T11:41:48.257Z,8.7
2019-03-15T11:42:50.301Z,8.6
2019-03-15T11:43:52.338Z,8.5
2019-03-15T11:44:54.430Z,8.5
2019-03-15T11:45:56.456Z,8.4
2019-03-15T11:46:58.850Z,8.3
2019-03-15T11:48:09.258Z,8.3
2019-03-15T11:49:11.313Z,8.3
2019-03-15T11:50:13.395Z,8.1
2019-03-15T11:51:15.430Z,8.1
2019-03-15T11:52:17.460Z,8.1
2019-03-15T11:53:20.068Z,8
2019-03-15T11:54:22.118Z,7.9
2019-03-15T11:55:24.157Z,7.8
2019-03-15T11:56:28.360Z,7.8
2019-03-15T11:57:30.389Z,7.8
2019-03-15T11:58:32.438Z,7.7
2019-03-15T11:59:37.492Z,7.8
2019-03-15T12:00:39.607Z,7.7
2019-03-15T12:01:41.652Z,7.7
2019-03-15T12:02:43.701Z,7.6
2019-03-15T12:03:54.842Z,7.6
2019-03-15T12:04:56.876Z,7.5
2019-03-15T12:05:59.393Z,7.5
2019-03-15T12:07:01.720Z,7.4
2019-03-15T12:08:03.763Z,7.4
2019-03-15T12:09:06.129Z,7.3
2019-03-15T12:10:08.217Z,7.3
2019-03-15T12:11:10.266Z,7.4
2019-03-15T12:12:12.306Z,7.4
2019-03-15T12:13:14.440Z,7.4
2019-03-15T12:14:16.785Z,7.4
2019-03-15T12:15:18.847Z,7.3
2019-03-15T12:16:21.282Z,7.3
2019-03-15T12:17:23.598Z,7.3
2019-03-15T12:18:25.677Z,7.3
2019-03-15T12:19:28.154Z,7.2
2019-03-15T12:20:30.196Z,7.2
2019-03-15T12:21:32.232Z,7.1
2019-03-15T12:22:34.262Z,7.2
2019-03-15T12:23:36.344Z,7.2
2019-03-15T12:24:38.370Z,7.2
2019-03-15T12:25:40.412Z,7.2
2019-03-15T12:26:42.463Z,7.1
2019-03-15T12:27:44.845Z,7.1
2019-03-15T12:28:47.248Z,7
2019-03-15T12:29:49.289Z,7
2019-03-15T12:30:51.647Z,7
2019-03-15T12:31:53.689Z,7
2019-03-15T12:32:56.394Z,7
2019-03-15T12:33:58.439Z,7.1
2019-03-15T12:35:00.975Z,7
2019-03-15T12:36:04.946Z,6.9
2019-03-15T12:37:06.978Z,6.9
2019-03-15T12:38:09.012Z,6.9
2019-03-15T12:39:11.053Z,6.9
2019-03-15T12:40:13.072Z,6.8
2019-03-15T12:41:15.106Z,6.9
2019-03-15T12:42:17.136Z,6.9
2019-03-15T12:43:19.191Z,6.8
2019-03-15T12:44:21.779Z,6.8
2019-03-15T12:45:23.846Z,6.8
2019-03-15T12:46:25.879Z,6.8
2019-03-15T12:47:28.288Z,6.9
2019-03-15T12:48:30.326Z,6.8
2019-03-15T12:49:32.355Z,6.7
2019-03-15T12:50:34.728Z,6.7
2019-03-15T12:51:37.322Z,6.8
2019-03-15T12:52:49.795Z,6.7
2019-03-15T12:53:52.129Z,6.8
2019-03-15T12:54:54.200Z,6.7
2019-03-15T12:55:56.615Z,6.7
2019-03-15T12:56:58.636Z,6.7
2019-03-15T12:58:00.676Z,6.7
2019-03-15T12:59:02.706Z,6.7
2019-03-15T13:00:04.763Z,6.7
2019-03-15T13:01:06.793Z,6.7
2019-03-15T13:02:08.821Z,6.7
2019-03-15T13:03:10.867Z,6.7
2019-03-15T13:04:13.175Z,6.7
2019-03-15T13:05:15.601Z,6.7
2019-03-15T13:06:17.633Z,6.8
2019-03-15T13:07:19.675Z,6.7
2019-03-15T13:08:21.689Z,6.7
2019-03-15T13:09:23.738Z,6.7
2019-03-15T13:10:25.763Z,6.7
2019-03-15T13:11:27.791Z,6.7
2019-03-15T13:12:29.834Z,6.7
2019-03-15T13:13:32.138Z,6.8
2019-03-15T13:14:34.176Z,6.7
2019-03-15T13:15:36.211Z,6.7
2019-03-15T13:16:38.269Z,6.7
2019-03-15T13:17:40.288Z,6.7
2019-03-15T13:18:42.322Z,6.7
2019-03-15T13:19:56.551Z,6.7
2019-03-15T13:20:58.572Z,6.7
2019-03-15T13:22:00.614Z,6.8
2019-03-15T13:23:02.726Z,6.8
2019-03-15T13:24:05.043Z,6.8
2019-03-15T13:25:07.099Z,6.8
2019-03-15T13:26:09.140Z,6.8
2019-03-15T13:27:11.180Z,6.9
2019-03-15T13:28:13.213Z,6.8
2019-03-15T13:29:15.538Z,6.8
2019-03-15T13:30:17.623Z,6.9
2019-03-15T13:31:19.659Z,6.9
2019-03-15T13:32:21.715Z,6.9
2019-03-15T13:33:23.729Z,7
2019-03-15T13:34:25.776Z,6.9
2019-03-15T13:35:27.810Z,7
2019-03-15T13:36:30.125Z,7
2019-03-15T13:37:32.439Z,7
2019-03-15T13:38:34.869Z,7
2019-03-15T13:39:37.199Z,7
2019-03-15T13:40:39.240Z,7.1
2019-03-15T13:41:41.289Z,7
2019-03-15T13:42:43.625Z,7.1
2019-03-15T13:43:45.688Z,7.1
2019-03-15T13:44:47.713Z,7.1
2019-03-15T13:45:49.757Z,7.1
2019-03-15T13:46:52.059Z,7.1
2019-03-15T13:47:54.094Z,7.1
2019-03-15T13:48:56.508Z,7.1
2019-03-15T13:49:59.223Z,7.1
2019-03-15T13:51:01.255Z,7.1
2019-03-15T13:52:03.295Z,7.2
2019-03-15T13:53:05.360Z,7.2
2019-03-15T13:54:07.388Z,7.2
2019-03-15T13:55:09.441Z,7.2
2019-03-15T13:56:11.763Z,7.3
2019-03-15T13:57:22.740Z,7.3
2019-03-15T13:58:24.768Z,7.3
2019-03-15T13:59:26.817Z,7.3
2019-03-15T14:00:29.198Z,7.4
2019-03-15T14:01:31.238Z,7.4
2019-03-15T14:02:33.624Z,7.4
2019-03-15T14:03:35.657Z,7.4
2019-03-15T14:04:37.688Z,7.5
2019-03-15T14:05:39.747Z,7.5
2019-03-15T14:06:41.763Z,7.5
2019-03-15T14:07:43.801Z,7.6
2019-03-15T14:08:45.854Z,7.6
2019-03-15T14:09:47.887Z,7.6
2019-03-15T14:10:51.252Z,7.6
2019-03-15T14:11:53.292Z,7.7
2019-03-15T14:12:55.338Z,7.7
2019-03-15T14:13:58.031Z,7.8
2019-03-15T14:15:00.197Z,7.9
2019-03-15T14:16:02.894Z,7.9
2019-03-15T14:17:05.052Z,8
2019-03-15T14:18:07.095Z,8
2019-03-15T14:19:09.130Z,8.1
2019-03-15T14:20:11.172Z,8.1
2019-03-15T14:21:13.500Z,8.1
2019-03-15T14:22:15.557Z,8.1